sensor_id;sensor_type;location;lat;lon;timestamp;P1;durP1;ratioP1;P2;durP2;ratioP2
84246;SDS011;74385;53.360;6.290;2024-02-28T00:00:05;20.05;;;11.35;;
84246;SDS011;74385;53.360;6.290;2024-02-28T00:02:31;18.02;;;8.63;;
84246;SDS011;74385;53.360;6.290;2024-02-28T00:04:57;26.30;;;11.32;;
84246;SDS011;74385;53.360;6.290;2024-02-28T00:07:24;22.73;;;11.77;;
84246;SDS011;74385;53.360;6.290;2024-02-28T00:09:50;24.33;;;10.40;;
84246;SDS011;74385;53.360;6.290;2024-02-28T00:12:16;26.10;;;11.80;;
84246;SDS011;74385;53.360;6.290;2024-02-28T00:14:42;21.52;;;9.95;;
84246;SDS011;74385;53.360;6.290;2024-02-28T00:17:08;21.77;;;10.57;;
84246;SDS011;74385;53.360;6.290;2024-02-28T00:19:34;21.48;;;11.45;;
84246;SDS011;74385;53.360;6.290;2024-02-28T00:22:01;26.73;;;11.70;;
84246;SDS011;74385;53.360;6.290;2024-02-28T00:24:27;24.33;;;11.57;;
84246;SDS011;74385;53.360;6.290;2024-02-28T00:26:53;24.27;;;11.65;;
84246;SDS011;74385;53.360;6.290;2024-02-28T00:29:19;23.63;;;11.85;;
84246;SDS011;74385;53.360;6.290;2024-02-28T00:31:46;28.25;;;12.52;;
84246;SDS011;74385;53.360;6.290;2024-02-28T00:34:12;27.23;;;13.45;;
84246;SDS011;74385;53.360;6.290;2024-02-28T00:36:39;24.15;;;11.10;;
84246;SDS011;74385;53.360;6.290;2024-02-28T00:39:05;22.88;;;10.27;;
84246;SDS011;74385;53.360;6.290;2024-02-28T00:41:31;19.42;;;9.05;;
84246;SDS011;74385;53.360;6.290;2024-02-28T00:43:58;22.17;;;10.32;;
84246;SDS011;74385;53.360;6.290;2024-02-28T00:46:24;21.20;;;10.38;;
84246;SDS011;74385;53.360;6.290;2024-02-28T00:48:50;20.77;;;9.15;;
84246;SDS011;74385;53.360;6.290;2024-02-28T00:51:16;21.73;;;11.20;;
84246;SDS011;74385;53.360;6.290;2024-02-28T00:53:42;18.90;;;8.85;;
84246;SDS011;74385;53.360;6.290;2024-02-28T00:56:08;16.15;;;8.23;;
84246;SDS011;74385;53.360;6.290;2024-02-28T00:58:34;18.60;;;8.65;;
84246;SDS011;74385;53.360;6.290;2024-02-28T01:01:00;21.48;;;10.30;;
84246;SDS011;74385;53.360;6.290;2024-02-28T01:03:26;20.13;;;10.55;;
84246;SDS011;74385;53.360;6.290;2024-02-28T01:05:52;15.77;;;8.35;;
84246;SDS011;74385;53.360;6.290;2024-02-28T01:08:18;20.33;;;10.40;;
84246;SDS011;74385;53.360;6.290;2024-02-28T01:10:45;21.08;;;10.18;;
84246;SDS011;74385;53.360;6.290;2024-02-28T01:13:11;19.70;;;10.15;;
84246;SDS011;74385;53.360;6.290;2024-02-28T01:15:40;20.02;;;10.40;;
84246;SDS011;74385;53.360;6.290;2024-02-28T01:18:07;19.95;;;9.48;;
84246;SDS011;74385;53.360;6.290;2024-02-28T01:20:33;16.38;;;7.93;;
84246;SDS011;74385;53.360;6.290;2024-02-28T01:22:59;20.33;;;9.30;;
84246;SDS011;74385;53.360;6.290;2024-02-28T01:25:25;21.40;;;10.30;;
84246;SDS011;74385;53.360;6.290;2024-02-28T01:27:51;23.23;;;10.77;;
84246;SDS011;74385;53.360;6.290;2024-02-28T01:30:18;22.15;;;10.70;;
84246;SDS011;74385;53.360;6.290;2024-02-28T01:32:44;16.98;;;9.05;;
84246;SDS011;74385;53.360;6.290;2024-02-28T01:35:11;17.25;;;10.35;;
84246;SDS011;74385;53.360;6.290;2024-02-28T01:37:37;23.30;;;10.80;;
84246;SDS011;74385;53.360;6.290;2024-02-28T01:40:03;22.90;;;10.55;;
84246;SDS011;74385;53.360;6.290;2024-02-28T01:42:30;20.30;;;8.60;;
84246;SDS011;74385;53.360;6.290;2024-02-28T01:44:57;21.13;;;10.35;;
84246;SDS011;74385;53.360;6.290;2024-02-28T01:47:24;27.48;;;11.98;;
84246;SDS011;74385;53.360;6.290;2024-02-28T01:49:50;24.33;;;10.07;;
84246;SDS011;74385;53.360;6.290;2024-02-28T01:52:18;24.38;;;11.98;;
84246;SDS011;74385;53.360;6.290;2024-02-28T01:54:44;21.33;;;11.23;;
84246;SDS011;74385;53.360;6.290;2024-02-28T01:57:10;19.95;;;10.02;;
84246;SDS011;74385;53.360;6.290;2024-02-28T01:59:36;23.95;;;11.15;;
84246;SDS011;74385;53.360;6.290;2024-02-28T02:02:03;25.63;;;10.75;;
84246;SDS011;74385;53.360;6.290;2024-02-28T02:04:29;21.40;;;10.32;;
84246;SDS011;74385;53.360;6.290;2024-02-28T02:06:56;23.15;;;11.10;;
84246;SDS011;74385;53.360;6.290;2024-02-28T02:09:25;25.80;;;10.75;;
84246;SDS011;74385;53.360;6.290;2024-02-28T02:11:51;17.98;;;7.85;;
84246;SDS011;74385;53.360;6.290;2024-02-28T02:14:17;15.25;;;8.65;;
84246;SDS011;74385;53.360;6.290;2024-02-28T02:16:44;26.17;;;12.43;;
84246;SDS011;74385;53.360;6.290;2024-02-28T02:19:10;21.75;;;10.60;;
84246;SDS011;74385;53.360;6.290;2024-02-28T02:21:49;22.52;;;10.27;;
84246;SDS011;74385;53.360;6.290;2024-02-28T02:24:17;22.83;;;10.68;;
84246;SDS011;74385;53.360;6.290;2024-02-28T02:26:44;29.27;;;12.70;;
84246;SDS011;74385;53.360;6.290;2024-02-28T02:29:11;26.75;;;12.63;;
84246;SDS011;74385;53.360;6.290;2024-02-28T02:31:38;30.35;;;13.07;;
84246;SDS011;74385;53.360;6.290;2024-02-28T02:34:05;25.30;;;12.05;;
84246;SDS011;74385;53.360;6.290;2024-02-28T02:36:31;25.73;;;11.60;;
84246;SDS011;74385;53.360;6.290;2024-02-28T02:38:57;28.38;;;12.95;;
84246;SDS011;74385;53.360;6.290;2024-02-28T02:41:23;25.77;;;12.18;;
84246;SDS011;74385;53.360;6.290;2024-02-28T02:43:50;30.27;;;13.80;;
84246;SDS011;74385;53.360;6.290;2024-02-28T02:46:16;27.02;;;11.55;;
84246;SDS011;74385;53.360;6.290;2024-02-28T02:48:42;25.67;;;13.40;;
84246;SDS011;74385;53.360;6.290;2024-02-28T02:51:08;27.42;;;12.88;;
84246;SDS011;74385;53.360;6.290;2024-02-28T02:53:34;31.75;;;14.00;;
84246;SDS011;74385;53.360;6.290;2024-02-28T02:56:00;29.15;;;12.73;;
84246;SDS011;74385;53.360;6.290;2024-02-28T02:58:30;32.60;;;14.65;;
84246;SDS011;74385;53.360;6.290;2024-02-28T03:00:56;33.03;;;14.43;;
84246;SDS011;74385;53.360;6.290;2024-02-28T03:03:22;31.27;;;14.32;;
84246;SDS011;74385;53.360;6.290;2024-02-28T03:05:48;23.40;;;11.23;;
84246;SDS011;74385;53.360;6.290;2024-02-28T03:08:14;29.15;;;12.38;;
84246;SDS011;74385;53.360;6.290;2024-02-28T03:10:40;22.50;;;10.85;;
84246;SDS011;74385;53.360;6.290;2024-02-28T03:13:07;27.98;;;13.05;;
84246;SDS011;74385;53.360;6.290;2024-02-28T03:15:33;33.72;;;14.80;;
84246;SDS011;74385;53.360;6.290;2024-02-28T03:17:59;22.45;;;10.85;;
84246;SDS011;74385;53.360;6.290;2024-02-28T03:20:25;30.05;;;11.98;;
84246;SDS011;74385;53.360;6.290;2024-02-28T03:22:51;33.20;;;14.75;;
84246;SDS011;74385;53.360;6.290;2024-02-28T03:25:17;30.60;;;13.10;;
84246;SDS011;74385;53.360;6.290;2024-02-28T03:27:43;25.15;;;12.68;;
84246;SDS011;74385;53.360;6.290;2024-02-28T03:30:09;29.35;;;13.13;;
84246;SDS011;74385;53.360;6.290;2024-02-28T03:32:35;31.98;;;14.45;;
84246;SDS011;74385;53.360;6.290;2024-02-28T03:35:01;30.33;;;14.82;;
84246;SDS011;74385;53.360;6.290;2024-02-28T03:37:30;28.98;;;13.88;;
84246;SDS011;74385;53.360;6.290;2024-02-28T03:39:56;26.95;;;13.82;;
84246;SDS011;74385;53.360;6.290;2024-02-28T03:42:22;33.33;;;15.23;;
84246;SDS011;74385;53.360;6.290;2024-02-28T03:44:48;27.40;;;12.95;;
84246;SDS011;74385;53.360;6.290;2024-02-28T03:47:15;29.17;;;13.13;;
84246;SDS011;74385;53.360;6.290;2024-02-28T03:49:41;25.50;;;12.85;;
84246;SDS011;74385;53.360;6.290;2024-02-28T03:52:07;25.75;;;12.85;;
84246;SDS011;74385;53.360;6.290;2024-02-28T03:54:33;27.98;;;13.75;;
84246;SDS011;74385;53.360;6.290;2024-02-28T03:56:59;24.02;;;13.30;;
84246;SDS011;74385;53.360;6.290;2024-02-28T03:59:25;33.42;;;14.48;;
84246;SDS011;74385;53.360;6.290;2024-02-28T04:01:51;27.20;;;13.27;;
84246;SDS011;74385;53.360;6.290;2024-02-28T04:04:17;25.80;;;11.68;;
84246;SDS011;74385;53.360;6.290;2024-02-28T04:06:43;25.52;;;12.35;;
84246;SDS011;74385;53.360;6.290;2024-02-28T04:09:09;30.70;;;14.35;;
84246;SDS011;74385;53.360;6.290;2024-02-28T04:11:36;25.25;;;12.38;;
84246;SDS011;74385;53.360;6.290;2024-02-28T04:14:03;28.42;;;12.60;;
84246;SDS011;74385;53.360;6.290;2024-02-28T04:16:30;27.63;;;13.70;;
84246;SDS011;74385;53.360;6.290;2024-02-28T04:18:58;32.05;;;14.20;;
84246;SDS011;74385;53.360;6.290;2024-02-28T04:21:24;22.42;;;11.32;;
84246;SDS011;74385;53.360;6.290;2024-02-28T04:23:50;26.27;;;11.95;;
84246;SDS011;74385;53.360;6.290;2024-02-28T04:26:16;28.15;;;13.25;;
84246;SDS011;74385;53.360;6.290;2024-02-28T04:28:42;32.55;;;14.07;;
84246;SDS011;74385;53.360;6.290;2024-02-28T04:31:08;29.73;;;14.13;;
84246;SDS011;74385;53.360;6.290;2024-02-28T04:33:35;32.30;;;15.05;;
84246;SDS011;74385;53.360;6.290;2024-02-28T04:36:01;30.83;;;15.65;;
84246;SDS011;74385;53.360;6.290;2024-02-28T04:38:28;28.40;;;12.70;;
84246;SDS011;74385;53.360;6.290;2024-02-28T04:40:55;29.95;;;15.02;;
84246;SDS011;74385;53.360;6.290;2024-02-28T04:43:21;26.65;;;14.05;;
84246;SDS011;74385;53.360;6.290;2024-02-28T04:45:47;29.30;;;13.95;;
84246;SDS011;74385;53.360;6.290;2024-02-28T04:48:13;29.60;;;13.65;;
84246;SDS011;74385;53.360;6.290;2024-02-28T04:50:39;25.50;;;13.50;;
84246;SDS011;74385;53.360;6.290;2024-02-28T04:53:05;28.10;;;13.60;;
84246;SDS011;74385;53.360;6.290;2024-02-28T04:55:32;32.90;;;15.25;;
84246;SDS011;74385;53.360;6.290;2024-02-28T04:57:58;29.05;;;14.80;;
84246;SDS011;74385;53.360;6.290;2024-02-28T05:00:24;35.13;;;15.60;;
84246;SDS011;74385;53.360;6.290;2024-02-28T05:02:50;31.30;;;13.90;;
84246;SDS011;74385;53.360;6.290;2024-02-28T05:05:16;33.25;;;13.95;;
84246;SDS011;74385;53.360;6.290;2024-02-28T05:07:42;29.58;;;14.25;;
84246;SDS011;74385;53.360;6.290;2024-02-28T05:10:08;26.70;;;11.93;;
84246;SDS011;74385;53.360;6.290;2024-02-28T05:12:34;25.52;;;12.60;;
84246;SDS011;74385;53.360;6.290;2024-02-28T05:15:00;26.88;;;12.98;;
84246;SDS011;74385;53.360;6.290;2024-02-28T05:17:26;24.58;;;12.60;;
84246;SDS011;74385;53.360;6.290;2024-02-28T05:19:52;29.83;;;14.48;;
84246;SDS011;74385;53.360;6.290;2024-02-28T05:22:18;25.52;;;13.50;;
84246;SDS011;74385;53.360;6.290;2024-02-28T05:24:48;31.25;;;14.15;;
84246;SDS011;74385;53.360;6.290;2024-02-28T05:27:14;30.23;;;13.85;;
84246;SDS011;74385;53.360;6.290;2024-02-28T05:29:40;25.90;;;13.05;;
84246;SDS011;74385;53.360;6.290;2024-02-28T05:32:08;28.20;;;11.88;;
84246;SDS011;74385;53.360;6.290;2024-02-28T05:34:34;27.02;;;11.20;;
84246;SDS011;74385;53.360;6.290;2024-02-28T05:37:00;25.15;;;13.77;;
84246;SDS011;74385;53.360;6.290;2024-02-28T05:39:26;24.05;;;13.65;;
84246;SDS011;74385;53.360;6.290;2024-02-28T05:41:54;26.52;;;11.13;;
84246;SDS011;74385;53.360;6.290;2024-02-28T05:44:20;32.17;;;13.48;;
84246;SDS011;74385;53.360;6.290;2024-02-28T05:46:47;34.38;;;13.43;;
84246;SDS011;74385;53.360;6.290;2024-02-28T05:49:13;31.23;;;14.50;;
84246;SDS011;74385;53.360;6.290;2024-02-28T05:51:39;25.73;;;11.55;;
84246;SDS011;74385;53.360;6.290;2024-02-28T05:54:05;36.92;;;15.05;;
84246;SDS011;74385;53.360;6.290;2024-02-28T05:56:31;34.63;;;14.45;;
84246;SDS011;74385;53.360;6.290;2024-02-28T05:58:57;30.63;;;14.32;;
84246;SDS011;74385;53.360;6.290;2024-02-28T06:01:23;32.58;;;15.10;;
84246;SDS011;74385;53.360;6.290;2024-02-28T06:03:50;31.60;;;15.45;;
84246;SDS011;74385;53.360;6.290;2024-02-28T06:06:16;33.60;;;13.85;;
84246;SDS011;74385;53.360;6.290;2024-02-28T06:08:43;35.78;;;14.98;;
84246;SDS011;74385;53.360;6.290;2024-02-28T06:11:09;43.70;;;18.00;;
84246;SDS011;74385;53.360;6.290;2024-02-28T06:13:35;29.90;;;13.23;;
84246;SDS011;74385;53.360;6.290;2024-02-28T06:16:02;36.42;;;16.75;;
84246;SDS011;74385;53.360;6.290;2024-02-28T06:18:28;34.30;;;13.48;;
84246;SDS011;74385;53.360;6.290;2024-02-28T06:20:58;38.13;;;15.50;;
84246;SDS011;74385;53.360;6.290;2024-02-28T06:23:24;34.22;;;15.43;;
84246;SDS011;74385;53.360;6.290;2024-02-28T06:25:51;34.30;;;18.02;;
84246;SDS011;74385;53.360;6.290;2024-02-28T06:28:17;33.97;;;16.33;;
84246;SDS011;74385;53.360;6.290;2024-02-28T06:30:43;45.25;;;18.80;;
84246;SDS011;74385;53.360;6.290;2024-02-28T06:33:12;38.03;;;15.82;;
84246;SDS011;74385;53.360;6.290;2024-02-28T06:35:38;31.90;;;14.15;;
84246;SDS011;74385;53.360;6.290;2024-02-28T06:38:04;42.97;;;16.00;;
84246;SDS011;74385;53.360;6.290;2024-02-28T06:40:30;42.45;;;17.02;;
84246;SDS011;74385;53.360;6.290;2024-02-28T06:42:57;43.45;;;15.90;;
84246;SDS011;74385;53.360;6.290;2024-02-28T06:45:23;44.72;;;16.75;;
84246;SDS011;74385;53.360;6.290;2024-02-28T06:47:49;47.25;;;18.45;;
84246;SDS011;74385;53.360;6.290;2024-02-28T06:50:16;45.05;;;16.25;;
84246;SDS011;74385;53.360;6.290;2024-02-28T06:52:42;47.38;;;18.20;;
84246;SDS011;74385;53.360;6.290;2024-02-28T06:55:08;48.00;;;18.52;;
84246;SDS011;74385;53.360;6.290;2024-02-28T06:57:40;41.55;;;15.95;;
84246;SDS011;74385;53.360;6.290;2024-02-28T07:00:06;35.90;;;14.65;;
84246;SDS011;74385;53.360;6.290;2024-02-28T07:02:43;36.20;;;15.70;;
84246;SDS011;74385;53.360;6.290;2024-02-28T07:05:10;39.78;;;16.00;;
84246;SDS011;74385;53.360;6.290;2024-02-28T07:07:36;35.72;;;15.18;;
84246;SDS011;74385;53.360;6.290;2024-02-28T07:10:03;43.88;;;17.52;;
84246;SDS011;74385;53.360;6.290;2024-02-28T07:12:29;51.85;;;18.40;;
84246;SDS011;74385;53.360;6.290;2024-02-28T07:14:55;37.92;;;16.27;;
84246;SDS011;74385;53.360;6.290;2024-02-28T07:17:21;45.20;;;17.98;;
84246;SDS011;74385;53.360;6.290;2024-02-28T07:19:48;42.00;;;17.27;;
84246;SDS011;74385;53.360;6.290;2024-02-28T07:22:14;38.15;;;17.77;;
84246;SDS011;74385;53.360;6.290;2024-02-28T07:24:40;45.67;;;19.33;;
84246;SDS011;74385;53.360;6.290;2024-02-28T07:27:06;40.28;;;17.85;;
84246;SDS011;74385;53.360;6.290;2024-02-28T07:29:32;46.30;;;18.15;;
84246;SDS011;74385;53.360;6.290;2024-02-28T07:31:59;35.25;;;14.98;;
84246;SDS011;74385;53.360;6.290;2024-02-28T07:34:27;31.55;;;14.55;;
84246;SDS011;74385;53.360;6.290;2024-02-28T07:36:53;41.55;;;17.05;;
84246;SDS011;74385;53.360;6.290;2024-02-28T07:39:19;38.60;;;16.88;;
84246;SDS011;74385;53.360;6.290;2024-02-28T07:41:46;39.80;;;17.67;;
84246;SDS011;74385;53.360;6.290;2024-02-28T07:44:12;42.08;;;16.92;;
84246;SDS011;74385;53.360;6.290;2024-02-28T07:46:40;35.30;;;17.85;;
84246;SDS011;74385;53.360;6.290;2024-02-28T07:49:07;42.08;;;17.75;;
84246;SDS011;74385;53.360;6.290;2024-02-28T07:51:33;55.67;;;22.85;;
84246;SDS011;74385;53.360;6.290;2024-02-28T07:53:59;39.63;;;17.33;;
84246;SDS011;74385;53.360;6.290;2024-02-28T07:56:25;45.50;;;19.27;;
84246;SDS011;74385;53.360;6.290;2024-02-28T07:58:51;44.00;;;18.60;;
84246;SDS011;74385;53.360;6.290;2024-02-28T08:01:18;39.50;;;18.85;;
84246;SDS011;74385;53.360;6.290;2024-02-28T08:03:44;37.70;;;17.58;;
84246;SDS011;74385;53.360;6.290;2024-02-28T08:06:11;42.88;;;19.40;;
84246;SDS011;74385;53.360;6.290;2024-02-28T08:08:37;38.13;;;19.73;;
84246;SDS011;74385;53.360;6.290;2024-02-28T08:11:04;36.97;;;17.25;;
84246;SDS011;74385;53.360;6.290;2024-02-28T08:13:31;37.60;;;17.48;;
84246;SDS011;74385;53.360;6.290;2024-02-28T08:15:58;36.28;;;17.38;;
84246;SDS011;74385;53.360;6.290;2024-02-28T08:18:25;45.33;;;19.15;;
84246;SDS011;74385;53.360;6.290;2024-02-28T08:20:51;41.90;;;18.10;;
84246;SDS011;74385;53.360;6.290;2024-02-28T08:23:18;39.55;;;16.98;;
84246;SDS011;74385;53.360;6.290;2024-02-28T08:25:44;38.53;;;17.40;;
84246;SDS011;74385;53.360;6.290;2024-02-28T08:28:11;38.47;;;18.55;;
84246;SDS011;74385;53.360;6.290;2024-02-28T08:30:37;36.35;;;17.52;;
84246;SDS011;74385;53.360;6.290;2024-02-28T08:33:03;39.33;;;16.48;;
84246;SDS011;74385;53.360;6.290;2024-02-28T08:35:29;35.50;;;17.23;;
84246;SDS011;74385;53.360;6.290;2024-02-28T08:37:55;44.65;;;18.60;;
84246;SDS011;74385;53.360;6.290;2024-02-28T08:40:22;41.35;;;18.00;;
84246;SDS011;74385;53.360;6.290;2024-02-28T08:42:48;35.05;;;17.88;;
84246;SDS011;74385;53.360;6.290;2024-02-28T08:45:18;32.72;;;15.52;;
84246;SDS011;74385;53.360;6.290;2024-02-28T08:47:44;39.40;;;16.30;;
84246;SDS011;74385;53.360;6.290;2024-02-28T08:50:10;35.83;;;17.45;;
84246;SDS011;74385;53.360;6.290;2024-02-28T08:52:36;42.05;;;17.60;;
84246;SDS011;74385;53.360;6.290;2024-02-28T08:55:03;33.60;;;18.08;;
84246;SDS011;74385;53.360;6.290;2024-02-28T08:57:29;36.42;;;15.82;;
84246;SDS011;74385;53.360;6.290;2024-02-28T08:59:55;38.78;;;15.50;;
84246;SDS011;74385;53.360;6.290;2024-02-28T09:02:21;32.33;;;16.25;;
84246;SDS011;74385;53.360;6.290;2024-02-28T09:04:47;40.17;;;18.77;;
84246;SDS011;74385;53.360;6.290;2024-02-28T09:07:19;38.22;;;17.92;;
84246;SDS011;74385;53.360;6.290;2024-02-28T09:12:12;37.58;;;17.83;;
84246;SDS011;74385;53.360;6.290;2024-02-28T09:14:38;31.20;;;15.40;;
84246;SDS011;74385;53.360;6.290;2024-02-28T09:17:04;29.60;;;15.45;;
84246;SDS011;74385;53.360;6.290;2024-02-28T09:19:31;35.92;;;17.05;;
84246;SDS011;74385;53.360;6.290;2024-02-28T09:21:58;42.08;;;17.20;;
84246;SDS011;74385;53.360;6.290;2024-02-28T09:24:24;35.70;;;18.42;;
84246;SDS011;74385;53.360;6.290;2024-02-28T09:26:50;31.58;;;17.10;;
84246;SDS011;74385;53.360;6.290;2024-02-28T09:29:17;35.78;;;16.80;;
84246;SDS011;74385;53.360;6.290;2024-02-28T09:31:43;35.47;;;18.88;;
84246;SDS011;74385;53.360;6.290;2024-02-28T09:34:09;32.63;;;16.35;;
84246;SDS011;74385;53.360;6.290;2024-02-28T09:36:44;37.20;;;18.08;;
84246;SDS011;74385;53.360;6.290;2024-02-28T09:39:12;34.35;;;17.50;;
84246;SDS011;74385;53.360;6.290;2024-02-28T09:41:38;38.10;;;19.13;;
84246;SDS011;74385;53.360;6.290;2024-02-28T09:44:05;45.10;;;21.02;;
84246;SDS011;74385;53.360;6.290;2024-02-28T09:46:32;35.17;;;17.30;;
84246;SDS011;74385;53.360;6.290;2024-02-28T09:49:03;32.83;;;16.58;;
84246;SDS011;74385;53.360;6.290;2024-02-28T09:51:30;38.38;;;16.95;;
84246;SDS011;74385;53.360;6.290;2024-02-28T09:54:00;33.72;;;16.35;;
84246;SDS011;74385;53.360;6.290;2024-02-28T09:56:27;37.38;;;17.52;;
84246;SDS011;74385;53.360;6.290;2024-02-28T09:58:54;34.55;;;15.27;;
84246;SDS011;74385;53.360;6.290;2024-02-28T10:01:21;34.90;;;16.95;;
84246;SDS011;74385;53.360;6.290;2024-02-28T10:03:48;34.15;;;15.50;;
84246;SDS011;74385;53.360;6.290;2024-02-28T10:06:19;35.03;;;16.30;;
84246;SDS011;74385;53.360;6.290;2024-02-28T10:08:46;32.97;;;18.05;;
84246;SDS011;74385;53.360;6.290;2024-02-28T10:11:22;34.35;;;18.13;;
84246;SDS011;74385;53.360;6.290;2024-02-28T10:13:49;35.17;;;17.38;;
84246;SDS011;74385;53.360;6.290;2024-02-28T10:16:15;38.97;;;19.38;;
84246;SDS011;74385;53.360;6.290;2024-02-28T10:18:45;39.08;;;19.65;;
84246;SDS011;74385;53.360;6.290;2024-02-28T10:21:12;40.97;;;20.02;;
84246;SDS011;74385;53.360;6.290;2024-02-28T10:23:41;34.38;;;18.48;;
84246;SDS011;74385;53.360;6.290;2024-02-28T10:26:10;29.55;;;15.88;;
84246;SDS011;74385;53.360;6.290;2024-02-28T10:28:40;38.92;;;17.77;;
84246;SDS011;74385;53.360;6.290;2024-02-28T10:31:08;40.13;;;19.85;;
84246;SDS011;74385;53.360;6.290;2024-02-28T10:33:35;36.42;;;18.23;;
84246;SDS011;74385;53.360;6.290;2024-02-28T10:36:05;33.20;;;17.48;;
84246;SDS011;74385;53.360;6.290;2024-02-28T10:38:34;40.80;;;18.17;;
84246;SDS011;74385;53.360;6.290;2024-02-28T10:41:01;39.47;;;19.17;;
84246;SDS011;74385;53.360;6.290;2024-02-28T10:43:30;42.28;;;20.95;;
84246;SDS011;74385;53.360;6.290;2024-02-28T10:45:59;39.10;;;17.73;;
84246;SDS011;74385;53.360;6.290;2024-02-28T10:48:26;46.63;;;22.05;;
84246;SDS011;74385;53.360;6.290;2024-02-28T10:50:52;31.65;;;15.93;;
84246;SDS011;74385;53.360;6.290;2024-02-28T10:53:27;39.17;;;19.00;;
84246;SDS011;74385;53.360;6.290;2024-02-28T10:58:22;36.55;;;18.80;;
84246;SDS011;74385;53.360;6.290;2024-02-28T11:00:50;37.92;;;16.75;;
84246;SDS011;74385;53.360;6.290;2024-02-28T11:03:17;35.67;;;18.23;;
84246;SDS011;74385;53.360;6.290;2024-02-28T11:05:44;39.05;;;17.27;;
84246;SDS011;74385;53.360;6.290;2024-02-28T11:10:41;40.17;;;18.58;;
84246;SDS011;74385;53.360;6.290;2024-02-28T11:13:09;39.45;;;19.70;;
84246;SDS011;74385;53.360;6.290;2024-02-28T11:15:36;41.28;;;18.63;;
84246;SDS011;74385;53.360;6.290;2024-02-28T11:18:09;43.85;;;19.70;;
84246;SDS011;74385;53.360;6.290;2024-02-28T11:20:36;39.13;;;18.63;;
84246;SDS011;74385;53.360;6.290;2024-02-28T11:23:06;41.75;;;18.27;;
84246;SDS011;74385;53.360;6.290;2024-02-28T11:25:33;38.53;;;18.00;;
84246;SDS011;74385;53.360;6.290;2024-02-28T11:28:00;39.42;;;18.13;;
84246;SDS011;74385;53.360;6.290;2024-02-28T11:30:26;34.92;;;17.48;;
84246;SDS011;74385;53.360;6.290;2024-02-28T11:32:54;35.63;;;18.63;;
84246;SDS011;74385;53.360;6.290;2024-02-28T11:35:20;36.47;;;18.98;;
84246;SDS011;74385;53.360;6.290;2024-02-28T11:37:47;41.40;;;20.25;;
84246;SDS011;74385;53.360;6.290;2024-02-28T11:40:15;38.65;;;17.55;;
84246;SDS011;74385;53.360;6.290;2024-02-28T11:42:42;42.00;;;18.90;;
84246;SDS011;74385;53.360;6.290;2024-02-28T11:45:09;38.13;;;19.48;;
84246;SDS011;74385;53.360;6.290;2024-02-28T11:47:36;32.92;;;16.70;;
84246;SDS011;74385;53.360;6.290;2024-02-28T11:50:02;40.78;;;19.30;;
84246;SDS011;74385;53.360;6.290;2024-02-28T11:52:36;34.42;;;18.60;;
84246;SDS011;74385;53.360;6.290;2024-02-28T11:55:03;42.53;;;19.25;;
84246;SDS011;74385;53.360;6.290;2024-02-28T11:57:29;37.80;;;18.70;;
84246;SDS011;74385;53.360;6.290;2024-02-28T12:00:02;37.78;;;18.27;;
84246;SDS011;74385;53.360;6.290;2024-02-28T12:02:29;39.53;;;18.25;;
84246;SDS011;74385;53.360;6.290;2024-02-28T12:04:59;36.10;;;16.90;;
84246;SDS011;74385;53.360;6.290;2024-02-28T12:07:26;35.35;;;17.33;;
84246;SDS011;74385;53.360;6.290;2024-02-28T12:09:53;32.55;;;18.13;;
84246;SDS011;74385;53.360;6.290;2024-02-28T12:12:22;28.77;;;16.02;;
84246;SDS011;74385;53.360;6.290;2024-02-28T12:14:49;35.58;;;17.85;;
84246;SDS011;74385;53.360;6.290;2024-02-28T12:17:17;36.90;;;18.58;;
84246;SDS011;74385;53.360;6.290;2024-02-28T12:19:44;42.72;;;18.90;;
84246;SDS011;74385;53.360;6.290;2024-02-28T12:22:10;35.15;;;17.50;;
84246;SDS011;74385;53.360;6.290;2024-02-28T12:24:38;35.33;;;18.70;;
84246;SDS011;74385;53.360;6.290;2024-02-28T12:27:04;32.90;;;16.73;;
84246;SDS011;74385;53.360;6.290;2024-02-28T12:29:32;31.38;;;16.73;;
84246;SDS011;74385;53.360;6.290;2024-02-28T12:31:58;32.67;;;16.08;;
84246;SDS011;74385;53.360;6.290;2024-02-28T12:34:25;34.25;;;16.05;;
84246;SDS011;74385;53.360;6.290;2024-02-28T12:36:51;32.25;;;17.55;;
84246;SDS011;74385;53.360;6.290;2024-02-28T12:39:19;32.50;;;17.33;;
84246;SDS011;74385;53.360;6.290;2024-02-28T12:41:45;33.83;;;15.80;;
84246;SDS011;74385;53.360;6.290;2024-02-28T12:44:11;29.90;;;17.45;;
84246;SDS011;74385;53.360;6.290;2024-02-28T12:46:37;28.50;;;15.55;;
84246;SDS011;74385;53.360;6.290;2024-02-28T12:49:04;23.65;;;14.77;;
84246;SDS011;74385;53.360;6.290;2024-02-28T12:51:40;27.33;;;15.52;;
84246;SDS011;74385;53.360;6.290;2024-02-28T12:54:08;26.15;;;12.73;;
84246;SDS011;74385;53.360;6.290;2024-02-28T12:56:35;33.53;;;17.23;;
84246;SDS011;74385;53.360;6.290;2024-02-28T12:59:02;27.30;;;16.00;;
84246;SDS011;74385;53.360;6.290;2024-02-28T13:01:29;30.25;;;16.98;;
84246;SDS011;74385;53.360;6.290;2024-02-28T13:03:56;30.45;;;16.23;;
84246;SDS011;74385;53.360;6.290;2024-02-28T13:06:22;30.73;;;17.77;;
84246;SDS011;74385;53.360;6.290;2024-02-28T13:08:49;32.30;;;15.85;;
84246;SDS011;74385;53.360;6.290;2024-02-28T13:11:20;30.58;;;16.63;;
84246;SDS011;74385;53.360;6.290;2024-02-28T13:13:47;26.73;;;13.50;;
84246;SDS011;74385;53.360;6.290;2024-02-28T13:16:14;29.38;;;16.27;;
84246;SDS011;74385;53.360;6.290;2024-02-28T13:18:40;32.30;;;16.33;;
84246;SDS011;74385;53.360;6.290;2024-02-28T13:21:07;30.52;;;16.27;;
84246;SDS011;74385;53.360;6.290;2024-02-28T13:23:33;23.92;;;14.27;;
84246;SDS011;74385;53.360;6.290;2024-02-28T13:26:00;28.45;;;16.00;;
84246;SDS011;74385;53.360;6.290;2024-02-28T13:28:26;22.27;;;13.13;;
84246;SDS011;74385;53.360;6.290;2024-02-28T13:30:56;29.83;;;16.73;;
84246;SDS011;74385;53.360;6.290;2024-02-28T13:33:23;27.33;;;16.33;;
84246;SDS011;74385;53.360;6.290;2024-02-28T13:35:49;28.75;;;14.82;;
84246;SDS011;74385;53.360;6.290;2024-02-28T13:38:17;28.35;;;14.90;;
84246;SDS011;74385;53.360;6.290;2024-02-28T13:40:43;27.02;;;15.15;;
84246;SDS011;74385;53.360;6.290;2024-02-28T13:43:10;26.30;;;15.65;;
84246;SDS011;74385;53.360;6.290;2024-02-28T13:45:38;32.67;;;18.33;;
84246;SDS011;74385;53.360;6.290;2024-02-28T13:48:14;27.88;;;15.77;;
84246;SDS011;74385;53.360;6.290;2024-02-28T13:50:41;28.85;;;17.70;;
84246;SDS011;74385;53.360;6.290;2024-02-28T13:53:08;30.10;;;17.88;;
84246;SDS011;74385;53.360;6.290;2024-02-28T13:55:34;25.35;;;16.52;;
84246;SDS011;74385;53.360;6.290;2024-02-28T13:58:00;25.73;;;15.63;;
84246;SDS011;74385;53.360;6.290;2024-02-28T14:00:26;29.88;;;16.45;;
84246;SDS011;74385;53.360;6.290;2024-02-28T14:02:52;30.52;;;18.58;;
84246;SDS011;74385;53.360;6.290;2024-02-28T14:05:19;29.65;;;15.57;;
84246;SDS011;74385;53.360;6.290;2024-02-28T14:07:45;29.77;;;17.63;;
84246;SDS011;74385;53.360;6.290;2024-02-28T14:10:11;29.95;;;17.08;;
84246;SDS011;74385;53.360;6.290;2024-02-28T14:12:38;28.48;;;16.48;;
84246;SDS011;74385;53.360;6.290;2024-02-28T14:15:04;30.60;;;16.77;;
84246;SDS011;74385;53.360;6.290;2024-02-28T14:17:32;25.73;;;14.35;;
84246;SDS011;74385;53.360;6.290;2024-02-28T14:19:58;27.45;;;16.10;;
84246;SDS011;74385;53.360;6.290;2024-02-28T14:22:25;33.30;;;17.63;;
84246;SDS011;74385;53.360;6.290;2024-02-28T14:24:51;24.13;;;14.77;;